Time;durP1;ratioP1;P1;durP2;ratioP2;P2;SDS_P1;SDS_P2;PMS_P1;PMS_P2;Temp;Humidity;BMP_temperature;BMP_pressure;BME280_temperature;BME280_humidity;BME280_pressure;Samples;Min_cycle;Max_cycle;Signal;HPM_P1;HPM_P2
2020/12/17 00:00:23;;;;;;;37.33;18.40;;;;;;;;;;5047012;28;20071;-62
2020/12/17 00:02:49;;;;;;;35.60;18.50;;;;;;;;;;5084805;28;20042;-62
2020/12/17 00:05:15;;;;;;;34.03;18.00;;;;;;;;;;5071593;28;20028;-62
2020/12/17 00:07:42;;;;;;;35.42;17.23;;;;;;;;;;5089894;28;20024;-62
2020/12/17 00:10:08;;;;;;;33.33;16.83;;;;;;;;;;5079832;28;20024;-62
2020/12/17 00:12:38;;;;;;;35.95;18.20;;;;;;;;;;5060955;28;20463;-62
2020/12/17 00:15:05;;;;;;;39.30;18.30;;;;;;;;;;5082507;28;20028;-62
2020/12/17 00:17:31;;;;;;;36.13;17.25;;;;;;;;;;5084324;28;20086;-62
2020/12/17 00:19:57;;;;;;;35.53;18.58;;;;;;;;;;5069638;28;20044;-62
2020/12/17 00:22:23;;;;;;;37.60;18.95;;;;;;;;;;5085499;28;20020;-62
2020/12/17 00:24:49;;;;;;;36.33;17.85;;;;;;;;;;5087237;28;20709;-62
2020/12/17 00:27:14;;;;;;;42.20;18.73;;;;;;;;;;5085162;28;20020;-62
2020/12/17 00:29:40;;;;;;;37.33;18.20;;;;;;;;;;5085206;28;20039;-62
2020/12/17 00:32:06;;;;;;;35.63;19.27;;;;;;;;;;5081649;28;20020;-62
2020/12/17 00:34:32;;;;;;;40.67;19.02;;;;;;;;;;5079812;28;20039;-62
2020/12/17 00:36:58;;;;;;;39.42;20.05;;;;;;;;;;5088924;28;20024;-62
2020/12/17 00:39:24;;;;;;;39.00;18.58;;;;;;;;;;5083566;28;20028;-62
2020/12/17 00:41:50;;;;;;;34.50;17.17;;;;;;;;;;5084644;28;20034;-62
2020/12/17 00:44:16;;;;;;;36.13;17.60;;;;;;;;;;5087687;28;20139;-62
2020/12/17 00:46:42;;;;;;;36.70;19.95;;;;;;;;;;5071678;28;20020;-62
2020/12/17 00:49:08;;;;;;;34.92;17.83;;;;;;;;;;5070349;28;20033;-61
2020/12/17 00:51:34;;;;;;;35.45;18.65;;;;;;;;;;5088030;28;20799;-62
2020/12/17 00:54:00;;;;;;;35.65;16.65;;;;;;;;;;5076646;28;20469;-62
2020/12/17 00:56:26;;;;;;;36.28;17.98;;;;;;;;;;5075546;28;20088;-62
2020/12/17 00:58:52;;;;;;;35.15;18.33;;;;;;;;;;5080183;28;20137;-62
2020/12/17 01:01:18;;;;;;;33.42;17.50;;;;;;;;;;5077796;28;20449;-62
2020/12/17 01:03:44;;;;;;;36.60;18.10;;;;;;;;;;5085895;28;20166;-62
2020/12/17 01:06:10;;;;;;;37.05;17.65;;;;;;;;;;5089034;28;20036;-62
2020/12/17 01:08:36;;;;;;;32.17;17.38;;;;;;;;;;5088974;28;20059;-62
2020/12/17 01:11:02;;;;;;;35.40;17.05;;;;;;;;;;5078351;28;20157;-62
2020/12/17 01:13:28;;;;;;;33.13;17.42;;;;;;;;;;5076278;28;20036;-62
2020/12/17 01:15:54;;;;;;;31.48;17.17;;;;;;;;;;5081779;28;20035;-62
2020/12/17 01:18:20;;;;;;;34.05;17.38;;;;;;;;;;5080025;28;20032;-62
2020/12/17 01:20:46;;;;;;;34.70;18.10;;;;;;;;;;5088467;28;20031;-62
2020/12/17 01:23:12;;;;;;;30.25;17.02;;;;;;;;;;5086109;28;20031;-62
2020/12/17 01:25:38;;;;;;;33.30;17.55;;;;;;;;;;5081154;28;20028;-62
2020/12/17 01:28:10;;;;;;;34.17;16.95;;;;;;;;;;5081142;28;20070;-62
2020/12/17 01:30:36;;;;;;;32.55;17.42;;;;;;;;;;5088712;28;20105;-61
2020/12/17 01:33:02;;;;;;;30.15;16.25;;;;;;;;;;5074451;28;20020;-62
2020/12/17 01:35:27;;;;;;;33.15;17.02;;;;;;;;;;5088668;28;20024;-62
2020/12/17 01:37:53;;;;;;;35.58;17.60;;;;;;;;;;5080251;28;20024;-62
2020/12/17 01:40:19;;;;;;;38.45;19.23;;;;;;;;;;5086890;28;20043;-62
2020/12/17 01:42:45;;;;;;;34.08;17.52;;;;;;;;;;5072913;28;20024;-62
2020/12/17 01:45:11;;;;;;;33.53;17.30;;;;;;;;;;5078614;28;20028;-62
2020/12/17 01:47:46;;;;;;;34.10;18.02;;;;;;;;;;5076255;28;20024;-62
2020/12/17 01:50:12;;;;;;;35.35;16.85;;;;;;;;;;5076334;28;20028;-62
2020/12/17 01:52:38;;;;;;;31.23;15.95;;;;;;;;;;5082377;28;20028;-62
2020/12/17 01:55:04;;;;;;;34.80;16.48;;;;;;;;;;5088175;28;20032;-62
2020/12/17 01:57:34;;;;;;;36.30;17.17;;;;;;;;;;5074779;28;20033;-62
2020/12/17 02:00:04;;;;;;;33.53;15.80;;;;;;;;;;5088004;28;20467;-62
2020/12/17 02:02:31;;;;;;;28.83;17.02;;;;;;;;;;5073823;28;20028;-62
2020/12/17 02:04:58;;;;;;;28.95;17.10;;;;;;;;;;5066718;28;20409;-63
2020/12/17 02:07:24;;;;;;;34.75;17.83;;;;;;;;;;5085719;28;20031;-63
2020/12/17 02:09:51;;;;;;;34.72;17.80;;;;;;;;;;5082253;28;20130;-63
2020/12/17 02:12:17;;;;;;;33.00;16.45;;;;;;;;;;5084289;28;20046;-63
2020/12/17 02:14:43;;;;;;;34.10;17.33;;;;;;;;;;5078093;28;20362;-63
2020/12/17 02:17:09;;;;;;;32.55;17.65;;;;;;;;;;5083051;28;20024;-63
2020/12/17 02:19:35;;;;;;;39.05;17.95;;;;;;;;;;5070247;28;20036;-63
2020/12/17 02:22:01;;;;;;;36.05;17.45;;;;;;;;;;5073189;28;20051;-63
2020/12/17 02:24:27;;;;;;;37.80;17.80;;;;;;;;;;5086543;28;20463;-63
2020/12/17 02:26:53;;;;;;;34.38;17.25;;;;;;;;;;5071513;28;20023;-63
2020/12/17 02:29:19;;;;;;;38.80;19.17;;;;;;;;;;5078473;28;20061;-63
2020/12/17 02:31:45;;;;;;;38.85;19.60;;;;;;;;;;5061260;28;20028;-63
2020/12/17 02:34:13;;;;;;;34.10;17.98;;;;;;;;;;5069003;28;20040;-63
2020/12/17 02:36:39;;;;;;;34.25;18.20;;;;;;;;;;5079631;28;20061;-63
2020/12/17 02:39:05;;;;;;;39.95;20.10;;;;;;;;;;5066924;28;20032;-63
2020/12/17 02:41:31;;;;;;;37.75;19.30;;;;;;;;;;5077227;28;20129;-63
2020/12/17 02:43:57;;;;;;;36.58;19.35;;;;;;;;;;5071823;28;20533;-63
2020/12/17 02:46:22;;;;;;;42.28;19.30;;;;;;;;;;5060150;28;20456;-63
2020/12/17 02:48:49;;;;;;;41.42;20.30;;;;;;;;;;5086856;28;20446;-63
2020/12/17 02:51:15;;;;;;;41.30;19.58;;;;;;;;;;5085007;28;20395;-63
2020/12/17 02:53:41;;;;;;;39.33;19.63;;;;;;;;;;5085313;28;20059;-63
2020/12/17 02:56:07;;;;;;;41.15;19.77;;;;;;;;;;5085638;28;20141;-63
2020/12/17 02:58:33;;;;;;;42.30;21.65;;;;;;;;;;5076716;28;20039;-63
2020/12/17 03:00:59;;;;;;;39.63;19.67;;;;;;;;;;5069976;28;20044;-63
2020/12/17 03:03:25;;;;;;;42.88;19.95;;;;;;;;;;5066836;28;20040;-63
2020/12/17 03:05:52;;;;;;;41.95;20.17;;;;;;;;;;5074460;28;20093;-63
2020/12/17 03:08:18;;;;;;;36.22;18.75;;;;;;;;;;5086873;28;20074;-63
2020/12/17 03:10:44;;;;;;;35.80;19.52;;;;;;;;;;5085955;28;20032;-63
2020/12/17 03:13:10;;;;;;;37.47;19.40;;;;;;;;;;5070107;28;20031;-63
2020/12/17 03:15:36;;;;;;;37.55;19.27;;;;;;;;;;5074908;28;20036;-63
2020/12/17 03:18:02;;;;;;;36.58;18.77;;;;;;;;;;5073689;28;20058;-63
2020/12/17 03:20:28;;;;;;;35.08;18.92;;;;;;;;;;5080740;28;20029;-63
2020/12/17 03:22:54;;;;;;;37.90;18.80;;;;;;;;;;5076730;28;20027;-63
2020/12/17 03:25:20;;;;;;;35.28;19.33;;;;;;;;;;5084634;28;20028;-63
2020/12/17 03:27:46;;;;;;;41.08;20.63;;;;;;;;;;5069938;28;20070;-63
2020/12/17 03:30:12;;;;;;;37.17;19.38;;;;;;;;;;5053947;28;20021;-63
2020/12/17 03:32:38;;;;;;;44.15;20.42;;;;;;;;;;5067777;28;20033;-63
2020/12/17 03:35:04;;;;;;;36.75;19.00;;;;;;;;;;5055894;28;20028;-63
2020/12/17 03:37:30;;;;;;;41.08;19.15;;;;;;;;;;5090530;28;20024;-63
2020/12/17 03:39:56;;;;;;;45.47;21.50;;;;;;;;;;5086965;28;20043;-63
2020/12/17 03:42:22;;;;;;;38.40;18.88;;;;;;;;;;5076880;28;20036;-63
2020/12/17 03:44:48;;;;;;;41.88;19.90;;;;;;;;;;5085387;28;20017;-63
2020/12/17 03:47:14;;;;;;;40.72;19.30;;;;;;;;;;5080496;28;20021;-63
2020/12/17 03:49:40;;;;;;;38.15;21.05;;;;;;;;;;5089709;28;20028;-63
2020/12/17 03:52:06;;;;;;;43.85;19.58;;;;;;;;;;5090051;28;20394;-63
2020/12/17 03:54:32;;;;;;;43.75;21.35;;;;;;;;;;5086935;28;20391;-63
2020/12/17 03:56:58;;;;;;;45.83;20.50;;;;;;;;;;5080160;28;20028;-63
2020/12/17 03:59:24;;;;;;;40.90;20.42;;;;;;;;;;5090448;28;20044;-63
2020/12/17 04:01:50;;;;;;;52.53;22.33;;;;;;;;;;5080587;28;20020;-63
2020/12/17 04:04:16;;;;;;;43.42;20.15;;;;;;;;;;5086969;28;20036;-63
2020/12/17 04:06:41;;;;;;;39.83;20.52;;;;;;;;;;5088725;28;20027;-63
2020/12/17 04:09:07;;;;;;;41.58;20.35;;;;;;;;;;5087089;28;20031;-63
2020/12/17 04:11:33;;;;;;;43.67;19.98;;;;;;;;;;5071602;28;20032;-63
2020/12/17 04:13:59;;;;;;;43.42;20.85;;;;;;;;;;5074497;28;20041;-63
2020/12/17 04:16:25;;;;;;;37.53;21.48;;;;;;;;;;5090620;28;20023;-63
2020/12/17 04:18:51;;;;;;;40.22;20.90;;;;;;;;;;5077484;28;20028;-63
2020/12/17 04:21:17;;;;;;;37.47;20.38;;;;;;;;;;5069858;28;20051;-62
2020/12/17 04:23:43;;;;;;;39.90;19.67;;;;;;;;;;5078254;28;20431;-63
2020/12/17 04:26:15;;;;;;;45.63;22.20;;;;;;;;;;5089495;28;20024;-63
2020/12/17 04:28:42;;;;;;;44.22;21.20;;;;;;;;;;5084000;28;20612;-63
2020/12/17 04:31:07;;;;;;;44.78;21.38;;;;;;;;;;5089463;28;20051;-63
2020/12/17 04:33:33;;;;;;;40.90;20.27;;;;;;;;;;5075069;28;20367;-63
2020/12/17 04:36:00;;;;;;;45.65;21.85;;;;;;;;;;5081183;28;20025;-62
2020/12/17 04:38:26;;;;;;;41.28;21.65;;;;;;;;;;5086527;28;20426;-62
2020/12/17 04:40:52;;;;;;;47.50;22.63;;;;;;;;;;5079990;28;20021;-62
2020/12/17 04:43:18;;;;;;;43.88;21.45;;;;;;;;;;5078136;28;20494;-62
2020/12/17 04:45:44;;;;;;;48.25;22.63;;;;;;;;;;5079211;28;20102;-62
2020/12/17 04:48:12;;;;;;;46.38;23.25;;;;;;;;;;5080798;28;20691;-63
2020/12/17 04:50:38;;;;;;;43.28;22.58;;;;;;;;;;5080777;28;20060;-63
2020/12/17 04:53:04;;;;;;;48.05;22.83;;;;;;;;;;5072050;28;20543;-63
2020/12/17 04:55:31;;;;;;;48.08;22.38;;;;;;;;;;5085189;28;20083;-62
2020/12/17 04:58:01;;;;;;;48.00;24.08;;;;;;;;;;5066736;28;20052;-62
2020/12/17 05:00:27;;;;;;;53.05;23.13;;;;;;;;;;5077066;28;20036;-63
2020/12/17 05:02:55;;;;;;;48.65;23.38;;;;;;;;;;5086067;28;20078;-63
2020/12/17 05:05:22;;;;;;;49.83;23.80;;;;;;;;;;5089121;28;20032;-63
2020/12/17 05:07:48;;;;;;;51.13;25.33;;;;;;;;;;5065400;28;20021;-63
2020/12/17 05:10:14;;;;;;;50.40;22.88;;;;;;;;;;5073290;28;20028;-62
2020/12/17 05:12:40;;;;;;;44.00;21.77;;;;;;;;;;5086140;28;20115;-63
2020/12/17 05:15:06;;;;;;;45.88;22.05;;;;;;;;;;5081318;28;20054;-63
2020/12/17 05:17:32;;;;;;;53.88;25.23;;;;;;;;;;5087995;28;20028;-63
2020/12/17 05:19:58;;;;;;;47.00;23.65;;;;;;;;;;5081519;28;20119;-63
2020/12/17 05:22:24;;;;;;;48.97;24.20;;;;;;;;;;5070175;28;20028;-63
2020/12/17 05:24:50;;;;;;;50.72;22.80;;;;;;;;;;5081366;28;20115;-63
2020/12/17 05:27:16;;;;;;;45.88;22.33;;;;;;;;;;5088789;28;20020;-63
2020/12/17 05:29:43;;;;;;;53.00;25.23;;;;;;;;;;5088842;28;20023;-63
2020/12/17 05:32:09;;;;;;;53.13;23.85;;;;;;;;;;5072965;28;20831;-63
2020/12/17 05:34:36;;;;;;;51.28;23.70;;;;;;;;;;5079032;28;20036;-63
2020/12/17 05:37:02;;;;;;;47.35;22.85;;;;;;;;;;5068354;28;20025;-63
2020/12/17 05:39:28;;;;;;;51.92;24.95;;;;;;;;;;5074645;28;20032;-63
2020/12/17 05:41:55;;;;;;;50.15;23.27;;;;;;;;;;5080975;28;20016;-63
2020/12/17 05:44:25;;;;;;;51.70;24.13;;;;;;;;;;5088222;28;20502;-62
2020/12/17 05:46:51;;;;;;;45.65;21.90;;;;;;;;;;5071232;28;20036;-62
2020/12/17 05:49:25;;;;;;;55.03;26.45;;;;;;;;;;5082429;28;20040;-63
2020/12/17 05:52:08;;;;;;;49.95;23.30;;;;;;;;;;5053666;28;20036;-62
2020/12/17 05:54:34;;;;;;;44.63;22.88;;;;;;;;;;5058448;28;20063;-62
2020/12/17 05:57:06;;;;;;;48.92;23.67;;;;;;;;;;5069021;28;20475;-63
2020/12/17 05:59:33;;;;;;;51.58;24.70;;;;;;;;;;5061053;28;20382;-63
2020/12/17 06:01:59;;;;;;;42.78;21.45;;;;;;;;;;5077097;28;20115;-61
2020/12/17 06:04:25;;;;;;;162.65;80.03;;;;;;;;;;5069796;28;20040;-61
2020/12/17 06:07:03;;;;;;;68.53;35.95;;;;;;;;;;5081625;28;20047;-61
2020/12/17 06:09:31;;;;;;;50.63;25.40;;;;;;;;;;5061030;28;20028;-61
2020/12/17 06:11:57;;;;;;;53.80;29.05;;;;;;;;;;5084754;28;20032;-61
2020/12/17 06:14:24;;;;;;;51.90;24.90;;;;;;;;;;5079162;28;20036;-61
2020/12/17 06:16:54;;;;;;;51.00;25.65;;;;;;;;;;5087318;28;20038;-61
2020/12/17 06:19:24;;;;;;;48.92;24.83;;;;;;;;;;5076059;28;20487;-61
2020/12/17 06:21:50;;;;;;;53.97;29.55;;;;;;;;;;5086570;28;20085;-61
2020/12/17 06:24:20;;;;;;;59.17;30.05;;;;;;;;;;5085081;28;20033;-61
2020/12/17 06:26:54;;;;;;;57.75;30.08;;;;;;;;;;5087172;28;20020;-61
2020/12/17 06:29:20;;;;;;;59.90;29.27;;;;;;;;;;5087557;28;20024;-61
2020/12/17 06:31:57;;;;;;;61.53;29.08;;;;;;;;;;5077797;28;20090;-61
2020/12/17 06:34:23;;;;;;;57.72;25.83;;;;;;;;;;5078718;28;20529;-61
2020/12/17 06:36:51;;;;;;;50.78;24.60;;;;;;;;;;5075726;28;20476;-61
2020/12/17 06:39:18;;;;;;;49.38;23.52;;;;;;;;;;5066506;28;20034;-61
2020/12/17 06:41:44;;;;;;;57.50;25.15;;;;;;;;;;5073153;28;20122;-61
2020/12/17 06:44:32;;;;;;;59.17;28.02;;;;;;;;;;5063128;28;20377;-61
2020/12/17 06:46:59;;;;;;;55.80;23.90;;;;;;;;;;5074130;28;20394;-61
2020/12/17 06:49:26;;;;;;;51.28;27.05;;;;;;;;;;5086774;28;20039;-61
2020/12/17 06:52:06;;;;;;;69.93;40.55;;;;;;;;;;5077753;28;20028;-61
2020/12/17 06:54:32;;;;;;;79.05;51.45;;;;;;;;;;5071681;28;20081;-61
2020/12/17 06:57:06;;;;;;;46.60;23.02;;;;;;;;;;5074284;28;20036;-61
2020/12/17 06:59:32;;;;;;;45.38;22.08;;;;;;;;;;5085386;28;20093;-61
2020/12/17 07:01:58;;;;;;;63.42;39.05;;;;;;;;;;5081978;28;20031;-61
2020/12/17 07:04:34;;;;;;;60.10;34.85;;;;;;;;;;5084538;28;20037;-61
2020/12/17 07:07:14;;;;;;;50.20;24.67;;;;;;;;;;5071919;28;20024;-61
2020/12/17 07:09:40;;;;;;;47.85;23.50;;;;;;;;;;5061212;28;20032;-61
2020/12/17 07:12:06;;;;;;;48.88;22.27;;;;;;;;;;5084989;28;20040;-61
2020/12/17 07:14:34;;;;;;;52.35;25.75;;;;;;;;;;5081251;28;20039;-61
2020/12/17 07:17:02;;;;;;;44.75;23.05;;;;;;;;;;5091064;28;20105;-61
2020/12/17 07:19:29;;;;;;;44.85;22.15;;;;;;;;;;5079366;28;20036;-61
2020/12/17 07:22:03;;;;;;;45.95;22.30;;;;;;;;;;5075754;28;20031;-61
2020/12/17 07:24:30;;;;;;;45.75;21.98;;;;;;;;;;5074454;28;20021;-61
2020/12/17 07:26:59;;;;;;;41.78;21.58;;;;;;;;;;5086406;28;20051;-61
2020/12/17 07:29:44;;;;;;;42.08;22.33;;;;;;;;;;5088964;28;20717;-61
2020/12/17 07:32:29;;;;;;;43.40;21.60;;;;;;;;;;5079468;28;20490;-61
2020/12/17 07:34:57;;;;;;;46.90;22.45;;;;;;;;;;5071216;28;20032;-61
2020/12/17 07:37:41;;;;;;;45.08;21.88;;;;;;;;;;5073930;28;20115;-61
2020/12/17 07:40:19;;;;;;;39.78;19.58;;;;;;;;;;5082914;28;20043;-61
2020/12/17 07:43:03;;;;;;;41.03;20.23;;;;;;;;;;5076054;28;20028;-61
2020/12/17 07:45:38;;;;;;;45.05;21.92;;;;;;;;;;5071845;28;20486;-61
2020/12/17 07:48:24;;;;;;;41.25;19.58;;;;;;;;;;5085602;28;20119;-61
2020/12/17 07:50:50;;;;;;;42.65;20.88;;;;;;;;;;5083020;28;20068;-61
2020/12/17 07:53:25;;;;;;;41.35;20.63;;;;;;;;;;5090318;28;20028;-61
2020/12/17 07:55:52;;;;;;;42.22;20.38;;;;;;;;;;5077002;28;20054;-61
2020/12/17 07:58:18;;;;;;;42.75;21.60;;;;;;;;;;5080851;28;20550;-61
2020/12/17 08:00:44;;;;;;;44.58;21.15;;;;;;;;;;5087897;28;20039;-62
2020/12/17 08:03:10;;;;;;;42.70;21.10;;;;;;;;;;5090250;28;20031;-61
2020/12/17 08:05:36;;;;;;;48.15;21.60;;;;;;;;;;5074257;28;20054;-61
2020/12/17 08:08:02;;;;;;;42.97;20.58;;;;;;;;;;5075034;28;20028;-61
2020/12/17 08:10:30;;;;;;;49.28;20.63;;;;;;;;;;5068461;28;20085;-61
2020/12/17 08:12:58;;;;;;;42.30;20.23;;;;;;;;;;5083095;28;20028;-61
2020/12/17 08:15:24;;;;;;;43.97;21.17;;;;;;;;;;5069639;28;20075;-61
2020/12/17 08:17:56;;;;;;;50.65;23.00;;;;;;;;;;5071417;28;20032;-59
2020/12/17 08:20:25;;;;;;;42.85;20.40;;;;;;;;;;5075723;28;20036;-61
2020/12/17 08:22:51;;;;;;;41.72;19.60;;;;;;;;;;5083997;28;20024;-61
2020/12/17 08:25:17;;;;;;;39.65;20.15;;;;;;;;;;5083038;28;20533;-61
2020/12/17 08:27:43;;;;;;;40.63;19.30;;;;;;;;;;5079410;28;20139;-61
2020/12/17 08:30:09;;;;;;;38.67;19.73;;;;;;;;;;5077665;28;20040;-61
2020/12/17 08:32:35;;;;;;;38.90;17.67;;;;;;;;;;5060038;28;20036;-61
2020/12/17 08:35:01;;;;;;;39.78;19.23;;;;;;;;;;5071221;28;20032;-61
2020/12/17 08:37:27;;;;;;;40.35;19.20;;;;;;;;;;5079634;28;20107;-61
2020/12/17 08:40:00;;;;;;;35.33;18.08;;;;;;;;;;5084159;28;20119;-61
2020/12/17 08:42:31;;;;;;;35.40;18.45;;;;;;;;;;5072624;28;20024;-61
2020/12/17 08:45:02;;;;;;;41.55;18.90;;;;;;;;;;5070221;28;20115;-61
2020/12/17 08:47:29;;;;;;;38.45;18.17;;;;;;;;;;5049423;28;20029;-61
2020/12/17 08:49:55;;;;;;;38.72;20.02;;;;;;;;;;5068803;28;20105;-61
2020/12/17 08:52:27;;;;;;;40.83;19.27;;;;;;;;;;5077540;28;20038;-62
2020/12/17 08:55:07;;;;;;;36.13;18.25;;;;;;;;;;5070971;28;20491;-60
2020/12/17 08:57:33;;;;;;;40.08;18.85;;;;;;;;;;5079327;28;20034;-62
2020/12/17 08:59:59;;;;;;;36.25;18.48;;;;;;;;;;5081457;28;20036;-62
2020/12/17 09:02:29;;;;;;;36.03;17.85;;;;;;;;;;5063383;28;20031;-62
2020/12/17 09:04:59;;;;;;;35.33;17.80;;;;;;;;;;5062728;28;20412;-62
2020/12/17 09:07:28;;;;;;;47.03;18.80;;;;;;;;;;5058091;28;20424;-62
2020/12/17 09:10:06;;;;;;;35.95;18.23;;;;;;;;;;5063778;28;20119;-62
2020/12/17 09:12:32;;;;;;;42.38;18.33;;;;;;;;;;5081278;28;20107;-62
2020/12/17 09:15:04;;;;;;;33.15;17.17;;;;;;;;;;5061543;28;20051;-62
2020/12/17 09:17:30;;;;;;;40.17;18.48;;;;;;;;;;5075440;28;20028;-62
2020/12/17 09:19:56;;;;;;;34.30;16.45;;;;;;;;;;5068421;28;20035;-61
2020/12/17 09:22:23;;;;;;;34.05;16.38;;;;;;;;;;5064422;28;20024;-62
2020/12/17 09:24:50;;;;;;;33.15;16.25;;;;;;;;;;5067062;28;20031;-62
2020/12/17 09:27:17;;;;;;;31.48;16.33;;;;;;;;;;5070710;28;20052;-62
2020/12/17 09:29:44;;;;;;;30.63;15.43;;;;;;;;;;5066677;28;20033;-62
2020/12/17 09:32:19;;;;;;;33.47;16.58;;;;;;;;;;5083553;28;20695;-63
2020/12/17 09:34:45;;;;;;;34.53;16.08;;;;;;;;;;5057818;28;20028;-62
2020/12/17 09:37:12;;;;;;;28.40;14.73;;;;;;;;;;5071216;28;20034;-62
2020/12/17 09:39:45;;;;;;;29.77;14.57;;;;;;;;;;5074372;28;20024;-61
2020/12/17 09:42:15;;;;;;;27.17;14.63;;;;;;;;;;5071464;28;20843;-62
2020/12/17 09:44:41;;;;;;;32.38;16.02;;;;;;;;;;5070480;28;20029;-62
2020/12/17 09:47:07;;;;;;;31.48;15.90;;;;;;;;;;5061917;28;20027;-62
2020/12/17 09:49:35;;;;;;;29.33;15.13;;;;;;;;;;5069858;28;20029;-63
2020/12/17 09:52:01;;;;;;;30.73;14.60;;;;;;;;;;5079117;28;20101;-62
2020/12/17 09:54:27;;;;;;;44.17;20.77;;;;;;;;;;5076487;28;20035;-62
2020/12/17 09:57:07;;;;;;;27.48;13.95;;;;;;;;;;5071223;28;20487;-62
2020/12/17 09:59:33;;;;;;;24.63;12.60;;;;;;;;;;5056951;28;20028;-62
2020/12/17 10:02:03;;;;;;;25.25;13.80;;;;;;;;;;5066615;28;20021;-62
2020/12/17 10:04:29;;;;;;;27.38;13.40;;;;;;;;;;5060475;28;20503;-63
2020/12/17 10:06:55;;;;;;;28.85;14.50;;;;;;;;;;5068164;28;20462;-62
2020/12/17 10:09:21;;;;;;;28.92;13.93;;;;;;;;;;5079361;28;20040;-62
2020/12/17 10:11:51;;;;;;;27.70;14.40;;;;;;;;;;5057650;28;20029;-63
2020/12/17 10:14:18;;;;;;;28.88;14.02;;;;;;;;;;5069473;28;20028;-63
2020/12/17 10:16:44;;;;;;;24.25;12.60;;;;;;;;;;5070648;28;20032;-62
2020/12/17 10:19:10;;;;;;;29.85;12.32;;;;;;;;;;5067996;28;20477;-62
2020/12/17 10:21:36;;;;;;;22.58;10.98;;;;;;;;;;5065755;28;20036;-63
2020/12/17 10:24:06;;;;;;;30.40;18.70;;;;;;;;;;5081139;28;20016;-63
2020/12/17 10:26:32;;;;;;;22.25;11.38;;;;;;;;;;5062442;28;20021;-63
2020/12/17 10:28:58;;;;;;;21.00;12.10;;;;;;;;;;5059647;28;20028;-63
2020/12/17 10:31:25;;;;;;;20.40;10.77;;;;;;;;;;5070902;28;20498;-63
2020/12/17 10:33:51;;;;;;;21.73;10.90;;;;;;;;;;5071745;28;20060;-63
2020/12/17 10:36:17;;;;;;;22.80;11.02;;;;;;;;;;5070785;28;20048;-63
2020/12/17 10:38:43;;;;;;;18.38;10.63;;;;;;;;;;5075725;28;20024;-62
2020/12/17 10:41:09;;;;;;;17.48;9.93;;;;;;;;;;5061016;28;20071;-62
2020/12/17 10:43:35;;;;;;;15.90;9.27;;;;;;;;;;5063767;28;20360;-62
2020/12/17 10:46:01;;;;;;;17.63;9.00;;;;;;;;;;5068819;28;20040;-62
2020/12/17 10:48:27;;;;;;;17.30;9.00;;;;;;;;;;5072216;28;20028;-63
2020/12/17 10:50:53;;;;;;;16.15;8.82;;;;;;;;;;5066439;28;20464;-63
2020/12/17 10:53:19;;;;;;;21.02;10.18;;;;;;;;;;5065501;28;20770;-63
2020/12/17 10:55:45;;;;;;;22.98;10.48;;;;;;;;;;5085091;28;20084;-63
2020/12/17 10:58:12;;;;;;;16.75;8.77;;;;;;;;;;5082068;28;20559;-63
2020/12/17 11:00:38;;;;;;;15.27;8.57;;;;;;;;;;5072642;28;20024;-63
2020/12/17 11:03:06;;;;;;;16.10;8.43;;;;;;;;;;5085876;28;20085;-63
2020/12/17 11:05:32;;;;;;;15.27;8.20;;;;;;;;;;5074763;28;20357;-63
2020/12/17 11:07:58;;;;;;;15.60;8.50;;;;;;;;;;5076139;28;20023;-63
2020/12/17 11:10:24;;;;;;;15.23;8.35;;;;;;;;;;5079347;28;20028;-63
2020/12/17 11:12:49;;;;;;;16.38;7.72;;;;;;;;;;5076049;28;20055;-63
2020/12/17 11:15:15;;;;;;;16.52;8.65;;;;;;;;;;5087172;28;20020;-63
2020/12/17 11:17:41;;;;;;;14.63;8.40;;;;;;;;;;5083064;28;20024;-63
2020/12/17 11:20:07;;;;;;;14.80;8.10;;;;;;;;;;5083352;28;20032;-63
2020/12/17 11:22:33;;;;;;;15.02;8.35;;;;;;;;;;5079957;28;20028;-63
2020/12/17 11:24:59;;;;;;;17.42;8.50;;;;;;;;;;5063479;28;20043;-63
2020/12/17 11:27:25;;;;;;;19.42;9.45;;;;;;;;;;5058027;28;20028;-63
2020/12/17 11:29:51;;;;;;;14.57;8.07;;;;;;;;;;5068326;28;20112;-63
2020/12/17 11:32:20;;;;;;;17.77;8.55;;;;;;;;;;5067057;28;20648;-63
2020/12/17 11:34:46;;;;;;;17.40;8.27;;;;;;;;;;5071290;28;20472;-63
2020/12/17 11:37:13;;;;;;;14.30;7.85;;;;;;;;;;5080967;28;20036;-63
2020/12/17 11:39:39;;;;;;;15.30;8.40;;;;;;;;;;5078231;28;20032;-63
2020/12/17 11:42:05;;;;;;;43.67;18.73;;;;;;;;;;5071112;28;20353;-63
2020/12/17 11:44:31;;;;;;;23.95;10.38;;;;;;;;;;5073718;28;20025;-63
2020/12/17 11:46:57;;;;;;;81.53;40.75;;;;;;;;;;5067167;28;20024;-63
2020/12/17 11:49:23;;;;;;;17.23;8.75;;;;;;;;;;5068815;28;20032;-63
2020/12/17 11:51:52;;;;;;;24.48;13.00;;;;;;;;;;5066471;28;20036;-63
2020/12/17 11:54:19;;;;;;;16.05;9.18;;;;;;;;;;5063974;28;20496;-63
2020/12/17 11:56:46;;;;;;;16.70;7.93;;;;;;;;;;5076543;28;20425;-63
2020/12/17 11:59:12;;;;;;;34.42;15.90;;;;;;;;;;5078350;28;20119;-63
2020/12/17 12:01:41;;;;;;;44.63;18.50;;;;;;;;;;5070678;28;20448;-63
2020/12/17 12:04:07;;;;;;;12.23;7.57;;;;;;;;;;5074609;28;20040;-63
2020/12/17 12:06:33;;;;;;;25.88;11.98;;;;;;;;;;5079332;28;20028;-63
2020/12/17 12:08:59;;;;;;;14.23;8.50;;;;;;;;;;5059514;28;20081;-63
2020/12/17 12:11:25;;;;;;;14.05;8.02;;;;;;;;;;5073297;28;20016;-63
2020/12/17 12:13:52;;;;;;;16.95;9.02;;;;;;;;;;5071651;28;20028;-63
2020/12/17 12:16:18;;;;;;;15.38;8.82;;;;;;;;;;5062013;28;20036;-63
2020/12/17 12:18:44;;;;;;;13.77;7.40;;;;;;;;;;5068572;28;20336;-63
2020/12/17 12:21:11;;;;;;;15.82;7.97;;;;;;;;;;5073748;28;20035;-63
2020/12/17 12:23:37;;;;;;;15.82;8.00;;;;;;;;;;5065894;28;20039;-63
2020/12/17 12:26:03;;;;;;;13.30;7.25;;;;;;;;;;5078239;28;20032;-63
2020/12/17 12:28:29;;;;;;;14.95;7.90;;;;;;;;;;5076255;28;20092;-63
2020/12/17 12:30:55;;;;;;;12.95;7.95;;;;;;;;;;5077558;28;20550;-63
2020/12/17 12:33:21;;;;;;;13.85;7.47;;;;;;;;;;5070359;28;20048;-63
2020/12/17 12:35:47;;;;;;;14.15;7.75;;;;;;;;;;5085211;28;20425;-63
2020/12/17 12:38:13;;;;;;;13.05;7.78;;;;;;;;;;5083473;28;20029;-63
2020/12/17 12:40:39;;;;;;;13.93;7.53;;;;;;;;;;5079397;28;20842;-63
2020/12/17 12:43:05;;;;;;;14.23;7.78;;;;;;;;;;5076351;28;20474;-63
2020/12/17 12:45:31;;;;;;;14.32;7.50;;;;;;;;;;5067492;28;20038;-63
2020/12/17 12:47:57;;;;;;;13.30;7.38;;;;;;;;;;5077832;28;20039;-63
2020/12/17 12:50:23;;;;;;;15.60;7.32;;;;;;;;;;5066879;28;20053;-63
2020/12/17 12:52:48;;;;;;;12.80;7.38;;;;;;;;;;5076819;28;20028;-63
2020/12/17 12:55:14;;;;;;;13.85;7.25;;;;;;;;;;5088489;28;20020;-63
2020/12/17 12:57:40;;;;;;;13.43;7.75;;;;;;;;;;5071991;28;20023;-63
2020/12/17 13:00:06;;;;;;;16.75;7.10;;;;;;;;;;5069853;28;20038;-63
2020/12/17 13:02:32;;;;;;;14.02;7.43;;;;;;;;;;5065316;28;20021;-63
2020/12/17 13:04:58;;;;;;;12.40;6.90;;;;;;;;;;5073548;28;20036;-63
2020/12/17 13:07:24;;;;;;;12.65;7.18;;;;;;;;;;5064261;28;20033;-63
2020/12/17 13:09:50;;;;;;;13.13;6.95;;;;;;;;;;5072792;28;20025;-63
2020/12/17 13:12:16;;;;;;;14.88;7.95;;;;;;;;;;5068486;28;20516;-63
2020/12/17 13:14:42;;;;;;;13.10;7.57;;;;;;;;;;5071785;28;20075;-63
2020/12/17 13:17:08;;;;;;;11.73;7.30;;;;;;;;;;5066394;28;20055;-63
2020/12/17 13:19:34;;;;;;;16.77;7.72;;;;;;;;;;5061253;28;20334;-63
2020/12/17 13:22:00;;;;;;;14.77;6.90;;;;;;;;;;5064153;28;20119;-63
2020/12/17 13:24:26;;;;;;;14.13;7.00;;;;;;;;;;5060534;28;20103;-63
2020/12/17 13:26:53;;;;;;;12.68;7.18;;;;;;;;;;5075555;28;20035;-63
2020/12/17 13:29:19;;;;;;;12.80;7.30;;;;;;;;;;5082935;28;20028;-63
2020/12/17 13:31:45;;;;;;;12.63;7.25;;;;;;;;;;5080262;28;20027;-63
2020/12/17 13:34:11;;;;;;;17.13;7.13;;;;;;;;;;5072742;28;20028;-63
2020/12/17 13:36:37;;;;;;;15.65;6.90;;;;;;;;;;5070357;28;20032;-63
2020/12/17 13:39:03;;;;;;;15.45;7.78;;;;;;;;;;5061581;28;20033;-63
2020/12/17 13:41:29;;;;;;;14.25;7.53;;;;;;;;;;5069823;28;20038;-63
2020/12/17 13:43:55;;;;;;;13.57;7.38;;;;;;;;;;5073957;28;20550;-63
2020/12/17 13:46:22;;;;;;;16.70;7.15;;;;;;;;;;5076681;28;20551;-63
2020/12/17 13:48:48;;;;;;;13.18;7.72;;;;;;;;;;5060229;28;20024;-63
2020/12/17 13:51:18;;;;;;;16.58;8.82;;;;;;;;;;5066214;28;20029;-62
2020/12/17 13:53:44;;;;;;;15.63;7.18;;;;;;;;;;5066794;28;20110;-63
2020/12/17 13:56:10;;;;;;;13.50;7.47;;;;;;;;;;5087395;28;20078;-62
2020/12/17 13:58:36;;;;;;;13.45;7.65;;;;;;;;;;5088181;28;20406;-62
2020/12/17 14:01:02;;;;;;;11.85;7.07;;;;;;;;;;5080442;28;20476;-63
2020/12/17 14:03:28;;;;;;;13.15;7.32;;;;;;;;;;5066338;28;20067;-63
2020/12/17 14:05:54;;;;;;;16.45;7.65;;;;;;;;;;5055608;28;20104;-63
2020/12/17 14:08:20;;;;;;;17.92;8.60;;;;;;;;;;5072788;28;20066;-63
2020/12/17 14:10:46;;;;;;;17.45;8.57;;;;;;;;;;5078963;28;20101;-62
2020/12/17 14:13:12;;;;;;;15.52;7.70;;;;;;;;;;5067063;28;20036;-63
2020/12/17 14:15:38;;;;;;;18.42;8.68;;;;;;;;;;5076006;28;20035;-63
2020/12/17 14:18:04;;;;;;;15.25;7.72;;;;;;;;;;5081410;28;20095;-63
2020/12/17 14:20:30;;;;;;;13.13;6.93;;;;;;;;;;5082849;28;20024;-63